Time;durP1;ratioP1;P1;durP2;ratioP2;P2;SDS_P1;SDS_P2;PMS_P1;PMS_P2;Temp;Humidity;BMP_temperature;BMP_pressure;BME280_temperature;BME280_humidity;BME280_pressure;Samples;Min_cycle;Max_cycle;Signal;HPM_P1;HPM_P2
2021/08/25 00:01:57;;;;;;;22.10;13.60;;;;;;;16.45;100.00;100063.67;1733132;82;21070;-77
2021/08/25 00:04:24;;;;;;;23.42;14.50;;;;;;;16.49;100.00;100045.71;1732665;82;21513;-77
2021/08/25 00:06:52;;;;;;;28.55;14.85;;;;;;;16.50;100.00;100044.30;1732355;82;21663;-79
2021/08/25 00:09:20;;;;;;;26.45;14.63;;;;;;;16.52;100.00;100041.55;1731999;82;21645;-78
2021/08/25 00:11:48;;;;;;;24.75;13.68;;;;;;;16.50;100.00;100032.34;1732090;82;21554;-77
2021/08/25 00:14:16;;;;;;;23.10;15.35;;;;;;;16.49;100.00;100022.64;1732061;82;21046;-78
2021/08/25 00:16:43;;;;;;;26.30;15.63;;;;;;;16.49;100.00;100013.81;1732105;82;21554;-77
2021/08/25 00:19:09;;;;;;;25.62;14.40;;;;;;;16.46;100.00;100006.89;1732385;82;21491;-78
2021/08/25 00:21:36;;;;;;;22.37;14.25;;;;;;;16.46;100.00;99998.92;1731872;82;21113;-78
2021/08/25 00:24:04;;;;;;;30.30;14.55;;;;;;;16.45;100.00;99994.57;1732128;82;21050;-78
2021/08/25 00:26:32;;;;;;;24.50;14.00;;;;;;;16.47;100.00;99997.98;1732250;82;21059;-78
2021/08/25 00:28:58;;;;;;;23.80;14.87;;;;;;;16.49;100.00;99996.05;1732291;82;21162;-77
2021/08/25 00:31:25;;;;;;;24.77;15.58;;;;;;;16.50;100.00;99989.81;1732261;82;21105;-77
2021/08/25 00:33:51;;;;;;;29.52;15.50;;;;;;;16.49;100.00;99985.42;1732375;82;21002;-77
2021/08/25 00:36:17;;;;;;;26.07;15.80;;;;;;;16.50;100.00;99975.19;1732653;82;21057;-78
2021/08/25 00:38:44;;;;;;;28.77;14.80;;;;;;;16.48;100.00;99963.80;1732292;82;21084;-78
2021/08/25 00:41:10;;;;;;;25.90;15.40;;;;;;;16.49;100.00;99961.98;1732671;82;21516;-78
2021/08/25 00:43:37;;;;;;;29.40;15.20;;;;;;;16.48;100.00;99961.62;1732273;82;21578;-78
2021/08/25 00:46:05;;;;;;;29.10;15.43;;;;;;;16.47;100.00;99954.58;1732313;82;21063;-78
2021/08/25 00:48:32;;;;;;;28.30;15.05;;;;;;;16.44;100.00;99963.61;1732356;82;21014;-77
2021/08/25 00:50:59;;;;;;;27.40;14.53;;;;;;;16.44;100.00;99976.90;1732170;82;21035;-77
2021/08/25 00:53:25;;;;;;;23.95;14.35;;;;;;;16.43;100.00;99984.98;1732192;82;21559;-77
2021/08/25 00:55:55;;;;;;;22.07;13.50;;;;;;;16.44;100.00;99990.19;1732222;82;21576;-77
2021/08/25 00:58:21;;;;;;;20.65;13.55;;;;;;;16.48;99.81;100006.33;1732145;82;21047;-77
2021/08/25 01:00:56;;;;;;;27.52;15.23;;;;;;;16.53;100.00;100009.53;1732554;82;21110;-77
2021/08/25 01:03:30;;;;;;;23.07;15.20;;;;;;;16.56;100.00;100018.66;1732408;82;21110;-78
2021/08/25 01:05:57;;;;;;;33.63;17.05;;;;;;;16.57;100.00;100016.37;1730560;82;21128;-77
2021/08/25 01:08:25;;;;;;;23.18;15.38;;;;;;;16.56;100.00;100004.05;1732181;82;21038;-78
2021/08/25 01:10:52;;;;;;;21.90;13.95;;;;;;;16.52;100.00;100006.52;1732570;82;22199;-79
2021/08/25 01:13:18;;;;;;;24.80;15.53;;;;;;;16.52;100.00;100001.20;1732436;82;21070;-77
2021/08/25 01:15:46;;;;;;;22.60;14.78;;;;;;;16.50;100.00;100008.41;1732209;82;21560;-77
2021/08/25 01:18:17;;;;;;;30.88;15.60;;;;;;;16.52;100.00;100023.80;1732833;82;21492;-77
2021/08/25 01:20:48;;;;;;;23.83;14.87;;;;;;;16.52;100.00;100035.75;1732519;82;21632;-77
2021/08/25 01:23:17;;;;;;;19.23;12.82;;;;;;;16.51;100.00;100039.34;1732832;82;21074;-79
2021/08/25 01:25:45;;;;;;;32.63;15.10;;;;;;;16.50;100.00;100041.64;1732712;82;21575;-78
2021/08/25 01:28:16;;;;;;;29.05;16.65;;;;;;;16.51;100.00;100043.34;1732953;82;21023;-78
2021/08/25 01:30:44;;;;;;;21.27;12.78;;;;;;;16.50;100.00;100033.67;1706511;82;21807;-76
2021/08/25 01:33:25;;;;;;;32.03;16.73;;;;;;;16.52;100.00;100027.78;1705970;82;21050;-77
2021/08/25 01:35:53;;;;;;;34.03;15.43;;;;;;;16.53;100.00;100025.97;1732593;82;21285;-76
2021/08/25 01:38:29;;;;;;;23.95;14.18;;;;;;;16.55;100.00;100026.25;1732224;82;21026;-78
2021/08/25 01:40:55;;;;;;;22.45;14.70;;;;;;;16.58;100.00;100024.71;1704163;82;21598;-76
2021/08/25 01:43:22;;;;;;;23.52;14.80;;;;;;;16.57;100.00;100023.02;1732765;82;22132;-78
2021/08/25 01:45:49;;;;;;;32.00;16.02;;;;;;;16.56;100.00;100017.34;1732535;82;21041;-76
2021/08/25 01:48:15;;;;;;;22.00;14.35;;;;;;;16.57;100.00;100020.36;1732725;82;21010;-77
2021/08/25 01:50:42;;;;;;;24.67;13.58;;;;;;;16.55;100.00;100011.62;1732807;82;20995;-78
2021/08/25 01:53:08;;;;;;;25.25;15.35;;;;;;;16.51;100.00;99988.84;1733461;82;21077;-78
2021/08/25 01:55:36;;;;;;;24.43;15.08;;;;;;;16.51;100.00;99988.84;1726018;82;21933;-79
2021/08/25 01:58:04;;;;;;;29.05;15.60;;;;;;;16.48;100.00;99995.69;1723545;83;21062;-77
2021/08/25 02:00:31;;;;;;;23.62;15.30;;;;;;;16.48;100.00;99985.06;1723538;83;21541;-79
2021/08/25 02:02:58;;;;;;;24.37;14.95;;;;;;;16.44;100.00;99979.55;1723527;82;21038;-78
2021/08/25 02:05:25;;;;;;;21.73;15.05;;;;;;;16.42;100.00;99981.94;1723600;83;21110;-78
2021/08/25 02:07:53;;;;;;;26.17;14.38;;;;;;;16.41;100.00;99974.45;1735135;82;21090;-77
2021/08/25 02:10:20;;;;;;;26.73;14.98;;;;;;;16.39;100.00;99968.38;1735378;82;21018;-76
2021/08/25 02:12:48;;;;;;;24.87;15.72;;;;;;;16.38;100.00;99961.81;1735563;82;21074;-78
2021/08/25 02:15:15;;;;;;;23.55;15.05;;;;;;;16.35;100.00;99957.55;1735286;82;21094;-77
2021/08/25 02:17:42;;;;;;;23.83;15.15;;;;;;;16.32;100.00;99956.43;1735448;82;21101;-77
2021/08/25 02:20:09;;;;;;;25.10;15.60;;;;;;;16.31;100.00;99952.92;1735483;82;21546;-78
2021/08/25 02:22:37;;;;;;;22.82;14.33;;;;;;;16.31;100.00;99950.72;1734975;82;21070;-77
2021/08/25 02:25:04;;;;;;;25.32;14.80;;;;;;;16.31;100.00;99949.39;1735185;82;21010;-77
2021/08/25 02:27:30;;;;;;;19.25;11.18;;;;;;;16.33;100.00;99951.48;1774413;80;21069;-77
2021/08/25 02:29:57;;;;;;;29.98;14.03;;;;;;;16.37;100.00;99949.01;1774246;80;21094;-77
2021/08/25 02:32:26;;;;;;;22.55;14.45;;;;;;;16.40;100.00;99955.93;1774535;80;21500;-78
2021/08/25 02:34:53;;;;;;;23.67;13.58;;;;;;;16.42;100.00;99956.20;1773557;80;21639;-79
2021/08/25 02:37:20;;;;;;;23.15;14.83;;;;;;;16.45;100.00;99956.03;1774588;80;21052;-77
2021/08/25 02:39:46;;;;;;;24.77;15.28;;;;;;;16.45;100.00;99952.05;1774053;80;21065;-78
2021/08/25 02:42:13;;;;;;;26.70;14.25;;;;;;;16.44;100.00;99942.34;1774489;80;21593;-78
2021/08/25 02:44:39;;;;;;;23.62;15.35;;;;;;;16.40;100.00;99941.31;1774187;80;21237;-78
2021/08/25 02:47:07;;;;;;;28.10;16.02;;;;;;;16.34;100.00;99943.90;1774361;80;21521;-77
2021/08/25 02:49:33;;;;;;;22.32;14.85;;;;;;;16.32;100.00;99945.80;1774304;80;21131;-77
2021/08/25 02:52:01;;;;;;;32.53;15.23;;;;;;;16.29;100.00;99938.03;1774467;80;21085;-79
2021/08/25 02:54:27;;;;;;;27.45;14.60;;;;;;;16.26;100.00;99938.20;1765763;80;21652;-78
2021/08/25 02:56:54;;;;;;;27.67;16.02;;;;;;;16.24;100.00;99933.46;1746189;81;21090;-79
2021/08/25 02:59:21;;;;;;;24.50;15.00;;;;;;;16.23;100.00;99939.26;1746289;82;21038;-78
2021/08/25 03:01:48;;;;;;;22.00;15.08;;;;;;;16.25;100.00;99939.17;1767331;80;21629;-77
2021/08/25 03:04:15;;;;;;;25.57;15.53;;;;;;;16.25;100.00;99940.50;1774356;80;21034;-77
2021/08/25 03:06:43;;;;;;;20.48;14.80;;;;;;;16.25;100.00;99937.84;1772336;80;22198;-78
2021/08/25 03:09:10;;;;;;;30.00;15.50;;;;;;;16.25;100.00;99939.17;1768679;80;21120;-79
2021/08/25 03:11:36;;;;;;;23.25;14.55;;;;;;;16.23;100.00;99934.42;1768485;81;21046;-78
2021/08/25 03:14:03;;;;;;;25.00;15.20;;;;;;;16.23;100.00;99934.42;1768623;81;21537;-77
2021/08/25 03:16:31;;;;;;;23.02;14.53;;;;;;;16.25;100.00;99936.52;1768346;81;21049;-78
2021/08/25 03:18:57;;;;;;;24.37;13.83;;;;;;;16.25;100.00;99938.69;1768909;81;21074;-78
2021/08/25 03:21:24;;;;;;;21.45;14.25;;;;;;;16.26;100.00;99935.55;1768851;81;21110;-79
2021/08/25 03:23:51;;;;;;;24.52;14.98;;;;;;;16.27;100.00;99942.59;1769115;81;21069;-79
2021/08/25 03:26:18;;;;;;;24.25;13.90;;;;;;;16.28;100.00;99937.16;1768758;81;21100;-80
2021/08/25 03:28:45;;;;;;;20.60;13.62;;;;;;;16.31;100.00;99948.06;1769092;81;21533;-78
2021/08/25 03:31:12;;;;;;;18.45;12.05;;;;;;;16.30;100.00;99939.72;1768934;81;21049;-77
2021/08/25 03:33:39;;;;;;;21.07;12.90;;;;;;;16.29;100.00;99935.38;1768769;81;21184;-79
2021/08/25 03:36:07;;;;;;;20.15;13.20;;;;;;;16.28;100.00;99936.31;1768727;81;21046;-77
2021/08/25 03:38:33;;;;;;;26.93;13.20;;;;;;;16.26;100.00;99932.41;1768617;80;21112;-79
2021/08/25 03:41:00;;;;;;;22.42;13.00;;;;;;;16.26;100.00;99930.23;1768626;80;20991;-78
2021/08/25 03:43:26;;;;;;;20.92;12.95;;;;;;;16.26;100.00;99924.92;1769036;81;21620;-79
2021/08/25 03:45:52;;;;;;;23.98;13.62;;;;;;;16.24;100.00;99932.13;1768708;81;21765;-78
2021/08/25 03:48:19;;;;;;;19.65;13.30;;;;;;;16.23;100.00;99929.11;1768815;80;21065;-77
2021/08/25 03:50:45;;;;;;;22.45;13.10;;;;;;;16.22;100.00;99931.38;1768636;81;21029;-79
2021/08/25 03:53:11;;;;;;;20.70;12.85;;;;;;;16.22;100.00;99929.59;1768891;80;21019;-78
2021/08/25 03:55:38;;;;;;;16.93;12.15;;;;;;;16.21;100.00;99929.69;1748551;81;21050;-79
2021/08/25 03:58:05;;;;;;;22.90;14.15;;;;;;;16.21;100.00;99920.38;1743240;81;21964;-78
2021/08/25 04:00:32;;;;;;;22.32;14.45;;;;;;;16.22;100.00;99926.06;1742953;82;21069;-78
2021/08/25 04:02:59;;;;;;;25.23;14.40;;;;;;;16.24;100.00;99925.04;1743585;82;21035;-79
2021/08/25 04:05:25;;;;;;;21.85;14.60;;;;;;;16.23;100.00;99923.31;1743222;81;20971;-78
2021/08/25 04:07:52;;;;;;;19.07;13.20;;;;;;;16.21;100.00;99927.03;1738549;82;21132;-78
2021/08/25 04:10:18;;;;;;;20.32;13.32;;;;;;;16.25;100.00;99935.19;1736106;82;21773;-78
2021/08/25 04:12:47;;;;;;;22.42;13.43;;;;;;;16.25;100.00;99936.52;1736201;81;21522;-79
2021/08/25 04:15:13;;;;;;;21.30;13.13;;;;;;;16.25;100.00;99929.39;1736259;82;21093;-78
2021/08/25 04:17:39;;;;;;;23.60;13.65;;;;;;;16.26;100.00;99931.56;1736395;81;21085;-77
2021/08/25 04:20:09;;;;;;;23.80;14.20;;;;;;;16.27;100.00;99930.15;1736477;82;21510;-79
2021/08/25 04:22:36;;;;;;;25.80;13.35;;;;;;;16.31;100.00;99937.43;1736278;82;21143;-80
2021/08/25 04:25:06;;;;;;;33.30;14.80;;;;;;;16.34;100.00;99931.94;1759267;81;21022;-79
2021/08/25 04:27:32;;;;;;;22.32;13.93;;;;;;;16.36;100.00;99934.03;1767801;81;21069;-79
2021/08/25 04:29:59;;;;;;;19.02;12.13;;;;;;;16.39;100.00;99920.53;1766828;81;21054;-78
2021/08/25 04:32:26;;;;;;;24.20;14.05;;;;;;;16.44;100.00;99918.42;1767006;81;21560;-78
2021/08/25 04:34:52;;;;;;;23.47;13.75;;;;;;;16.49;100.00;99916.31;1766850;81;21126;-79
2021/08/25 04:37:19;;;;;;;23.15;13.98;;;;;;;16.54;100.00;99913.36;1766952;80;20955;-77
2021/08/25 04:39:47;;;;;;;21.62;13.35;;;;;;;16.58;100.00;99905.08;1767161;81;21038;-76
2021/08/25 04:42:16;;;;;;;20.43;12.53;;;;;;;16.62;100.00;99903.57;1767068;81;21053;-80
2021/08/25 04:44:42;;;;;;;22.05;13.18;;;;;;;16.64;100.00;99904.33;1766519;81;21659;-79
2021/08/25 04:47:08;;;;;;;20.75;13.05;;;;;;;16.65;100.00;99901.55;1767015;81;21431;-79
2021/08/25 04:49:35;;;;;;;19.50;13.25;;;;;;;16.64;100.00;99900.34;1766686;81;21029;-77
2021/08/25 04:52:02;;;;;;;17.80;12.65;;;;;;;16.65;100.00;99898.05;1766725;81;21573;-78
2021/08/25 04:54:31;;;;;;;19.73;13.25;;;;;;;16.68;100.00;99904.48;1766649;81;21586;-77
2021/08/25 04:56:57;;;;;;;19.87;12.98;;;;;;;16.71;100.00;99902.97;1766691;81;21023;-79
2021/08/25 04:59:27;;;;;;;19.23;11.97;;;;;;;16.75;100.00;99903.14;1766822;81;21492;-79
2021/08/25 05:01:55;;;;;;;20.15;11.68;;;;;;;16.83;100.00;99902.66;1766969;81;21034;-77
2021/08/25 05:04:21;;;;;;;16.55;11.38;;;;;;;16.92;100.00;99910.87;1766798;80;21617;-79
2021/08/25 05:06:48;;;;;;;16.40;12.07;;;;;;;16.99;99.66;99913.97;1766844;81;21058;-79
2021/08/25 05:09:15;;;;;;;22.32;14.50;;;;;;;17.08;99.81;99909.84;1768368;80;21052;-79
2021/08/25 05:11:42;;;;;;;21.17;13.53;;;;;;;17.17;99.87;99907.89;1768572;80;21549;-79
2021/08/25 05:14:08;;;;;;;22.02;14.95;;;;;;;17.25;99.71;99898.89;1768842;80;21030;-78
2021/08/25 05:16:36;;;;;;;19.10;12.40;;;;;;;17.35;99.94;99897.32;1768511;80;21086;-79
2021/08/25 05:19:03;;;;;;;16.95;12.13;;;;;;;17.46;98.54;99893.05;1768891;80;21097;-77
2021/08/25 05:21:29;;;;;;;20.90;12.93;;;;;;;17.54;97.00;99901.37;1768368;81;20999;-78
2021/08/25 05:23:56;;;;;;;17.92;12.43;;;;;;;17.57;96.95;99898.48;1768709;81;21468;-79
2021/08/25 05:26:22;;;;;;;18.35;11.95;;;;;;;17.62;95.82;99899.00;1768655;80;21104;-78
2021/08/25 05:28:50;;;;;;;19.85;12.23;;;;;;;17.69;95.81;99892.31;1768508;81;21038;-78
2021/08/25 05:31:16;;;;;;;16.05;12.40;;;;;;;17.73;95.34;99891.11;1769033;81;21042;-79
2021/08/25 05:33:43;;;;;;;17.98;12.43;;;;;;;17.79;95.38;99886.70;1769126;81;21073;-78
2021/08/25 05:36:10;;;;;;;17.75;11.80;;;;;;;17.86;95.86;99898.30;1768698;81;21110;-78
2021/08/25 05:38:36;;;;;;;19.52;11.18;;;;;;;17.91;95.15;99890.81;1769054;80;21081;-78
2021/08/25 05:41:03;;;;;;;21.00;13.25;;;;;;;18.02;94.41;99893.57;1768857;81;21034;-79
2021/08/25 05:43:29;;;;;;;18.42;11.05;;;;;;;18.20;94.26;99889.58;1769163;81;21488;-78
2021/08/25 05:45:56;;;;;;;19.82;12.35;;;;;;;18.36;93.44;99889.80;1768708;80;21077;-78
2021/08/25 05:48:22;;;;;;;18.10;11.90;;;;;;;18.40;91.91;99888.59;1769219;80;21082;-78
2021/08/25 05:50:50;;;;;;;15.60;10.23;;;;;;;18.43;91.59;99895.05;1768609;81;21082;-78
2021/08/25 05:53:17;;;;;;;13.78;10.13;;;;;;;18.47;92.07;99888.50;1768644;81;21069;-77
2021/08/25 05:55:45;;;;;;;16.10;11.80;;;;;;;18.49;90.66;99886.58;1729349;80;21564;-77
2021/08/25 05:58:13;;;;;;;18.55;11.68;;;;;;;18.44;89.74;99882.07;1705344;84;21003;-80
2021/08/25 06:00:39;;;;;;;17.80;11.80;;;;;;;18.40;90.90;99888.13;1720313;83;21207;-79
2021/08/25 06:03:06;;;;;;;20.55;12.95;;;;;;;18.34;91.02;99887.72;1705367;83;21030;-78
2021/08/25 06:05:33;;;;;;;17.37;11.63;;;;;;;18.22;90.51;99882.32;1720251;83;21044;-80
2021/08/25 06:07:59;;;;;;;19.42;13.18;;;;;;;18.14;91.69;99884.68;1718118;82;21064;-77
2021/08/25 06:10:25;;;;;;;17.73;11.68;;;;;;;18.11;91.67;99884.91;1714738;83;21030;-78
2021/08/25 06:12:53;;;;;;;17.37;11.43;;;;;;;18.04;91.77;99884.98;1714837;83;21525;-79
2021/08/25 06:15:20;;;;;;;18.70;11.45;;;;;;;17.97;91.96;99887.73;1714924;83;21591;-79
2021/08/25 06:17:46;;;;;;;18.23;12.05;;;;;;;17.92;92.25;99885.39;1715068;83;21265;-77
2021/08/25 06:20:13;;;;;;;17.90;12.65;;;;;;;17.93;93.11;99887.08;1688705;83;21607;-78
2021/08/25 06:22:40;;;;;;;22.15;11.93;;;;;;;17.97;92.75;99885.06;1714850;83;22102;-77
2021/08/25 06:25:09;;;;;;;21.85;13.08;;;;;;;17.94;93.19;99879.93;1714974;83;21210;-79
2021/08/25 06:27:35;;;;;;;17.00;12.15;;;;;;;17.99;93.97;99880.45;1714475;83;21461;-78
2021/08/25 06:30:04;;;;;;;19.35;12.35;;;;;;;17.99;92.88;99883.11;1715540;83;21496;-79
2021/08/25 06:32:30;;;;;;;20.50;12.05;;;;;;;17.98;93.86;99884.09;1715114;83;21608;-78
2021/08/25 06:34:57;;;;;;;18.37;11.73;;;;;;;18.00;94.45;99879.50;1715132;83;21069;-77
2021/08/25 06:37:24;;;;;;;19.65;12.10;;;;;;;18.06;93.06;99892.39;1714758;82;21311;-79
2021/08/25 06:39:50;;;;;;;21.02;13.53;;;;;;;18.12;93.27;99891.09;1714945;83;21675;-78
2021/08/25 06:42:17;;;;;;;24.80;15.35;;;;;;;18.13;92.13;99894.98;1714449;83;21041;-78
2021/08/25 06:44:43;;;;;;;21.48;14.13;;;;;;;18.11;91.81;99890.24;1714470;83;21085;-78
2021/08/25 06:47:11;;;;;;;17.85;13.08;;;;;;;18.11;91.97;99888.91;1714649;83;21005;-78
2021/08/25 06:49:37;;;;;;;25.45;13.45;;;;;;;18.14;92.10;99895.34;1715091;83;21034;-78
2021/08/25 06:52:04;;;;;;;21.75;14.43;;;;;;;18.24;92.93;99896.39;1714559;83;21069;-78
2021/08/25 06:54:30;;;;;;;22.50;14.18;;;;;;;18.35;91.56;99897.41;1722837;82;21591;-79
2021/08/25 06:56:57;;;;;;;27.37;16.12;;;;;;;18.44;91.43;99898.07;1739660;82;21489;-78
2021/08/25 06:59:23;;;;;;;22.62;14.45;;;;;;;18.81;91.64;99902.04;1740427;82;21047;-78
2021/08/25 07:01:49;;;;;;;21.02;13.58;;;;;;;19.28;90.25;99898.93;1739726;82;21713;-77
2021/08/25 07:04:18;;;;;;;22.55;15.08;;;;;;;19.86;84.49;99897.06;1739736;82;21033;-79
2021/08/25 07:06:46;;;;;;;28.87;15.23;;;;;;;20.41;83.53;99896.27;1739195;82;21097;-78
2021/08/25 07:09:13;;;;;;;21.23;13.68;;;;;;;20.86;81.43;99897.47;1764969;80;21113;-79
2021/08/25 07:11:41;;;;;;;22.22;14.95;;;;;;;21.40;77.25;99893.81;1771650;81;21050;-78
2021/08/25 07:14:08;;;;;;;20.43;13.80;;;;;;;21.78;76.54;99897.66;1771811;80;21128;-78
2021/08/25 07:16:35;;;;;;;20.05;14.58;;;;;;;21.95;74.38;99897.03;1771809;80;21549;-78
2021/08/25 07:19:03;;;;;;;20.50;14.68;;;;;;;22.09;74.34;99901.17;1771739;80;21061;-78
2021/08/25 07:21:32;;;;;;;20.77;15.32;;;;;;;22.28;74.13;99899.56;1772030;81;21513;-78
2021/08/25 07:24:00;;;;;;;19.67;13.30;;;;;;;22.49;73.17;99904.32;1772300;81;21513;-79
2021/08/25 07:26:27;;;;;;;20.77;13.03;;;;;;;22.71;71.22;99905.07;1771998;80;21095;-77
2021/08/25 07:28:54;;;;;;;18.40;13.18;;;;;;;22.66;69.09;99905.97;1771771;80;21045;-77
2021/08/25 07:31:20;;;;;;;22.37;13.85;;;;;;;22.64;69.91;99903.44;1771820;81;21056;-77
2021/08/25 07:33:47;;;;;;;18.82;11.85;;;;;;;22.63;70.96;99899.88;1771908;80;21046;-77
2021/08/25 07:36:13;;;;;;;18.20;12.45;;;;;;;22.80;69.57;99892.98;1771928;80;21065;-78
2021/08/25 07:38:40;;;;;;;17.12;12.10;;;;;;;23.08;67.60;99889.63;1771836;80;21482;-78
2021/08/25 07:41:06;;;;;;;15.70;11.65;;;;;;;23.50;66.69;99882.03;1771514;81;21124;-78
2021/08/25 07:43:33;;;;;;;17.85;12.80;;;;;;;23.93;65.14;99883.83;1771537;81;21045;-78
2021/08/25 07:46:00;;;;;;;18.65;11.48;;;;;;;23.98;63.10;99874.30;1771395;80;21120;-80
2021/08/25 07:48:26;;;;;;;16.65;11.90;;;;;;;24.15;62.99;99875.84;1767315;81;21376;-78
2021/08/25 07:50:54;;;;;;;16.32;11.35;;;;;;;24.19;62.52;99879.42;1740817;82;21199;-77
2021/08/25 07:53:20;;;;;;;20.23;11.97;;;;;;;24.05;63.02;99886.66;1740920;82;21643;-78
2021/08/25 07:55:52;;;;;;;21.30;12.40;;;;;;;23.79;64.70;99893.22;1727062;82;21026;-77
2021/08/25 07:58:18;;;;;;;21.35;13.15;;;;;;;23.54;65.92;99890.16;1725109;83;21541;-77
2021/08/25 08:00:46;;;;;;;26.73;12.85;;;;;;;23.47;67.28;99887.70;1725460;83;21564;-77
2021/08/25 08:03:13;;;;;;;21.68;13.20;;;;;;;23.54;66.38;99886.13;1725134;83;21154;-77
2021/08/25 08:05:43;;;;;;;21.33;14.55;;;;;;;23.66;65.52;99887.63;1725376;83;21081;-79
2021/08/25 08:08:11;;;;;;;20.80;14.35;;;;;;;23.58;65.73;99882.16;1727825;82;21026;-79
2021/08/25 08:10:38;;;;;;;20.20;14.55;;;;;;;23.57;66.00;99885.82;1737809;82;21011;-77
2021/08/25 08:13:04;;;;;;;25.37;15.55;;;;;;;23.73;65.77;99878.98;1737784;82;21003;-77
2021/08/25 08:15:33;;;;;;;22.87;15.63;;;;;;;23.73;65.96;99884.36;1737792;82;22067;-79
2021/08/25 08:18:09;;;;;;;22.95;16.27;;;;;;;23.53;64.75;99883.06;1737549;82;21105;-79
2021/08/25 08:20:30;;;;;;;24.20;17.73;;;;;;;23.30;66.54;99883.06;1736520;82;20987;-78
2021/08/25 08:22:56;;;;;;;25.52;18.37;;;;;;;23.00;67.84;99894.34;1737811;82;21462;-78
2021/08/25 08:25:23;;;;;;;26.75;17.60;;;;;;;22.63;68.40;99888.30;1737834;82;21092;-79
2021/08/25 08:27:49;;;;;;;23.95;19.65;;;;;;;22.31;70.77;99882.67;1737870;82;21596;-79
2021/08/25 08:30:15;;;;;;;35.28;23.77;;;;;;;22.08;71.20;99889.23;1738395;82;21522;-78
2021/08/25 08:32:42;;;;;;;29.23;19.77;;;;;;;21.90;72.34;99880.52;1738189;82;21014;-78
2021/08/25 08:35:09;;;;;;;22.13;16.50;;;;;;;21.90;73.01;99880.52;1737911;82;21132;-79
2021/08/25 08:37:35;;;;;;;24.10;16.37;;;;;;;21.90;72.12;99879.17;1737836;82;21589;-77
2021/08/25 08:40:04;;;;;;;23.92;17.05;;;;;;;21.84;73.43;99875.69;1738329;82;21053;-77
2021/08/25 08:42:33;;;;;;;23.40;16.95;;;;;;;21.76;72.65;99875.49;1738047;82;21593;-77
2021/08/25 08:44:59;;;;;;;28.50;18.17;;;;;;;21.66;73.04;99871.94;1738524;82;21109;-77
2021/08/25 08:47:27;;;;;;;23.22;15.60;;;;;;;21.49;74.37;99874.76;1738498;82;21007;-75
2021/08/25 08:49:57;;;;;;;25.32;17.37;;;;;;;21.36;75.08;99881.63;1738549;82;21057;-76
2021/08/25 08:52:25;;;;;;;27.10;18.17;;;;;;;21.13;76.00;99881.75;1738454;82;21075;-76
2021/08/25 08:54:53;;;;;;;22.60;16.25;;;;;;;21.08;76.65;99883.98;1754825;80;21038;-77
2021/08/25 08:57:21;;;;;;;25.35;16.62;;;;;;;21.06;76.22;99888.61;1749428;80;21101;-78
2021/08/25 08:59:48;;;;;;;25.52;17.75;;;;;;;21.06;78.04;99888.61;1774674;80;21568;-78
2021/08/25 09:02:38;;;;;;;26.30;17.55;;;;;;;21.04;76.83;99883.88;1775331;80;21089;-76
2021/08/25 09:05:20;;;;;;;23.07;17.25;;;;;;;20.98;77.51;99888.43;1774749;80;21878;-77
2021/08/25 09:07:57;;;;;;;26.05;17.30;;;;;;;20.87;78.72;99878.61;1774304;80;21588;-79
2021/08/25 09:10:32;;;;;;;22.60;17.23;;;;;;;20.78;78.68;99883.90;1771119;80;21097;-78
2021/08/25 09:13:04;;;;;;;21.57;17.00;;;;;;;20.62;79.12;99886.50;1771506;81;21069;-77
2021/08/25 09:15:33;;;;;;;26.93;17.35;;;;;;;20.54;80.82;99876.41;1771912;81;21078;-79
2021/08/25 09:18:03;;;;;;;24.25;16.97;;;;;;;20.49;80.05;99877.75;1771476;81;21085;-78
2021/08/25 09:23:25;;;;;;;24.45;18.92;;;;;;;20.52;82.00;99880.16;1795993;79;22643;-78
2021/08/25 09:26:01;;;;;;;27.70;18.32;;;;;;;20.43;81.97;99883.13;1756499;81;21529;-77
2021/08/25 09:28:35;;;;;;;27.40;18.82;;;;;;;20.38;82.63;99880.45;1755549;81;21145;-78
2021/08/25 09:31:08;;;;;;;26.15;17.17;;;;;;;20.37;83.41;99878.27;1756375;81;20993;-78
2021/08/25 09:33:37;;;;;;;28.98;18.37;;;;;;;20.36;82.06;99875.72;1778919;80;21063;-79
2021/08/25 09:36:07;;;;;;;24.77;17.62;;;;;;;20.38;83.29;99877.28;1790932;80;21097;-78
2021/08/25 09:38:36;;;;;;;24.75;17.42;;;;;;;20.39;83.35;99876.83;1762378;80;21505;-79
2021/08/25 09:41:10;;;;;;;21.87;16.40;;;;;;;20.46;82.57;99874.00;1790555;80;21078;-79
2021/08/25 09:43:48;;;;;;;22.42;15.65;;;;;;;20.51;82.62;99870.45;1790614;80;21031;-78
2021/08/25 09:46:21;;;;;;;23.67;18.20;;;;;;;20.49;81.58;99872.41;1790781;80;21056;-79
2021/08/25 09:48:58;;;;;;;24.77;15.88;;;;;;;20.40;84.34;99870.48;1756364;81;21135;-80
2021/08/25 09:51:29;;;;;;;22.52;16.57;;;;;;;20.25;84.87;99866.77;1729194;83;21108;-79
2021/08/25 09:54:14;;;;;;;27.37;17.52;;;;;;;20.09;84.99;99862.30;1736597;82;21521;-77
2021/08/25 09:56:43;;;;;;;27.10;16.75;;;;;;;19.98;86.41;99866.33;1737427;82;21054;-78
2021/08/25 09:59:13;;;;;;;24.77;15.20;;;;;;;19.95;86.63;99862.57;1737761;82;21072;-79
2021/08/25 10:01:42;;;;;;;24.82;15.55;;;;;;;19.98;86.27;99855.63;1737951;82;21092;-78
2021/08/25 10:04:11;;;;;;;26.05;15.65;;;;;;;20.19;86.64;99851.20;1737834;82;21112;-78
2021/08/25 10:06:42;;;;;;;22.48;15.70;;;;;;;20.55;84.02;99845.16;1737737;82;21601;-78
2021/08/25 10:09:10;;;;;;;21.52;14.73;;;;;;;20.97;82.59;99843.05;1737513;82;21411;-77
2021/08/25 10:11:45;;;;;;;22.15;14.35;;;;;;;21.29;78.97;99836.27;1737421;82;21046;-79
2021/08/25 10:14:16;;;;;;;22.70;15.98;;;;;;;21.72;76.50;99833.89;1737669;82;21081;-80
2021/08/25 10:16:51;;;;;;;23.77;16.62;;;;;;;22.17;74.68;99834.77;1737338;82;21548;-78
2021/08/25 10:19:38;;;;;;;25.27;15.83;;;;;;;22.66;72.81;99837.05;1737590;82;21176;-79
2021/08/25 10:22:23;;;;;;;21.27;14.87;;;;;;;23.15;70.48;99829.80;1742523;81;21097;-79
2021/08/25 10:25:00;;;;;;;22.87;15.30;;;;;;;23.68;67.96;99822.14;1751100;82;21587;-80
2021/08/25 10:27:30;;;;;;;20.40;14.45;;;;;;;23.88;66.43;99821.08;1751369;81;21042;-77
2021/08/25 10:30:10;;;;;;;20.37;15.55;;;;;;;23.98;66.27;99814.29;1751125;82;21627;-78
2021/08/25 10:32:39;;;;;;;20.90;15.78;;;;;;;24.15;66.20;99814.80;1751114;81;21105;-78
2021/08/25 10:35:17;;;;;;;24.80;15.28;;;;;;;24.20;65.48;99807.14;1724845;82;21046;-77
2021/08/25 10:37:45;;;;;;;21.80;15.03;;;;;;;24.08;66.08;99809.17;1750623;82;21010;-78
2021/08/25 10:40:12;;;;;;;22.15;15.48;;;;;;;23.98;65.87;99803.02;1750468;82;21533;-80
2021/08/25 10:42:53;;;;;;;22.95;14.65;;;;;;;23.92;65.75;99806.31;1750519;82;21132;-78
2021/08/25 10:45:48;;;;;;;23.30;14.78;;;;;;;23.71;66.29;99803.84;1749731;82;26515;-78
2021/08/25 10:48:14;;;;;;;21.07;13.70;;;;;;;23.68;67.17;99803.31;1750721;82;21599;-79
2021/08/25 10:50:56;;;;;;;18.95;14.13;;;;;;;23.78;66.61;99799.59;1750299;82;21002;-78
2021/08/25 10:53:34;;;;;;;18.57;14.68;;;;;;;23.93;65.78;99798.61;1750853;82;21050;-78
2021/08/25 10:56:20;;;;;;;21.35;14.25;;;;;;;23.93;66.49;99791.88;1750470;82;21021;-78
2021/08/25 10:58:56;;;;;;;18.70;13.10;;;;;;;23.82;66.20;99789.40;1749617;82;21127;-78
2021/08/25 11:01:36;;;;;;;19.00;13.53;;;;;;;23.71;65.58;99788.22;1750359;82;21093;-79
2021/08/25 11:04:06;;;;;;;18.85;13.48;;;;;;;23.80;65.75;99781.98;1750867;82;21560;-77
2021/08/25 11:06:52;;;;;;;17.92;13.32;;;;;;;23.98;64.83;99777.98;1749699;82;21089;-77
2021/08/25 11:09:29;;;;;;;20.43;13.88;;;;;;;24.15;64.77;99769.06;1749268;82;21041;-79
2021/08/25 11:12:02;;;;;;;17.25;11.55;;;;;;;24.33;64.10;99769.08;1750540;82;21526;-78
2021/08/25 11:14:37;;;;;;;16.85;12.50;;;;;;;24.41;62.13;99766.47;1750478;82;21061;-77
2021/08/25 11:17:19;;;;;;;16.80;12.03;;;;;;;24.41;62.38;99769.16;1748898;82;21050;-76
2021/08/25 11:19:56;;;;;;;19.42;11.80;;;;;;;24.39;63.23;99767.63;1750547;82;21076;-79
2021/08/25 11:22:47;;;;;;;17.92;11.38;;;;;;;24.41;62.51;99766.47;1750363;82;21074;-78